Pagina principale
METAR-TAF:

METAR-TAF

Aeroporti :

Aeroporto Internazionale di Baghdad

Baghdad, Iraq

latitudine: 33-15-45N, longitudine: 44-14-04E, altezza: 35 m

Osservazione

Il bollettino è stato emesso 42 minuti fa, alle 13:00 UTC
Vento 13 kt da ovest/nord-ovest
Temperature 39°C
Umidità 20%
Pressione 1002 hPa
Visibilità 10 km o più
nessuna nube inferiore a 1500 m e nessun cumulonembo

METAR: ORBI 241300Z 30013KT CAVOK 39/12 Q1002 NOSIG

Ora: 16:42 (13:42 UTC)

Previsione

Il bollettino è stato emesso 3 ore e 42 minuti fa, alle 10:00 UTC
Previsione valida dal 24 alle 12 UTC al 25 alle 12 UTC
Vento 8 kt da nord-ovest
Visibilità: 7000 m

TAF: ORBI 241000Z 2412/2512 32008KT 7000 NSC

Osservazioni e previsioni meteorologiche di più di 4000 aeroporti (messaggi METAR e TAF).

Le stazioni disponibili sono rappresentate dai dischi gialli e rossi sulla carta.

Puntare il mouse per vedere il nome della stazione.

Clicca sopra per visualizzare le osservazioni e previsioni meteorologiche.

Per cambiare la mappa : fare clic sui pulsanti verdi con una croce nera per ingrandire, il pulsante verde con un trattino per diminuire, o sulla freccia verde per le mappe adiacenti.


METAR-TAF: